• Join FlightAware (Why Join?)
  • Login
  • US Flag 
06:37AM EDT


 

Airport Tracker/Info


-or-


 

Live Flight TrackerFlight Track Log ✈ FLG3323 ✈ 24-May-2013 ✈ KBOS - KMEM

Flight Track Log - Related Links

Times and Time Zones

All times are in EDT time to prevent confusion due to time zone crossing. See the FLG3323 flight status page for this flight to view local times or setup timezone preferences in your user account.

Time Position Orientation Groundspeed Altitude Reporting Facility
EDT Latitude Longitude Course Direction KTS MPH feet Rate Location/Type
05:25PM 42.3833 -71.0167 278° West 157 181 600  Level KA90
05:28PM 42.3299 -70.7252 168° South  Level FlightAware Approximate
05:28PM 42.3914 -71.1808 274° West 202 232 4,900  Level Boston Center
05:29PM 42.2442 -70.8004 228° Southwest  Level FlightAware Approximate
05:29PM 42.3503 -71.2517 232° Southwest 226 260 7,600  Level Boston Center
05:30PM 42.1844 -70.9308 240° Southwest  Level FlightAware Approximate
05:30PM 42.3242 -71.3478 250° West 265 305 10,400  Level Boston Center
05:31PM 42.1950 -71.0831 278° West  Level FlightAware Approximate
05:31PM 42.3047 -71.4744 258° West 302 348 11,900  Level Boston Center
05:32PM 42.2911 -71.5981 262° West 338 389 14,400 2,160 Climbing Boston Center
05:33PM 42.2792 -71.7106 262° West 345 397 16,300 1,920 Climbing Boston Center
05:34PM 42.2656 -71.8508 263° West 350 403 18,300 1,560 Climbing Boston Center
05:35PM 42.2472 -71.9858 260° West 357 411 19,500 1,380 Climbing Boston Center
05:36PM 42.2333 -72.1206 262° West 357 411 21,100 1,500 Climbing Boston Center
05:37PM 42.2169 -72.2578 261° West 367 422 22,600 1,500 Climbing Boston Center
05:38PM 42.2003 -72.3953 261° West 373 429 24,100 1,440 Climbing Boston Center
05:39PM 42.1836 -72.5408 261° West 378 435 25,500 1,260 Climbing Boston Center
05:40PM 42.1647 -72.6839 260° West 391 450 26,700 1,200 Climbing Boston Center
05:41PM 42.1081 -72.8039 238° Southwest 377 434 28,000 1,020 Climbing Boston Center
05:42PM 42.0536 -72.9014 233° Southwest 377 434 28,800 1,200 Climbing Boston Center
05:43PM 41.9778 -73.0294 231° Southwest 388 447 30,500 1,620 Climbing Boston Center
05:44PM 41.9003 -73.1150 219° Southwest 387 445 32,100 1,740 Climbing Boston Center
05:45PM 41.8247 -73.1811 213° Southwest 361 415 34,000 900 Climbing Boston Center
05:46PM 41.7431 -73.2497 212° Southwest 348 400 34,000  Level Boston Center
05:47PM 41.6633 -73.3208 214° Southwest 348 400 34,000  Level Boston Center
05:48PM 41.5958 -73.4172 227° Southwest 353 406 34,000  Level Boston Center
05:49PM 41.5431 -73.4942 228° Southwest 353 406 34,000  Level Boston Center
05:51PM 41.3975 -73.7222 230° Southwest 360 414 34,000  Level New York Center
05:52PM 41.3303 -73.8242 229° Southwest 365 420 34,000  Level New York Center
05:53PM 41.2633 -73.9203 227° Southwest 365 420 34,000  Level New York Center
05:54PM 41.1961 -74.0219 229° Southwest 365 420 34,000  Level New York Center
05:55PM 41.1328 -74.1236 230° Southwest 365 420 34,000  Level New York Center
05:56PM 41.0667 -74.2469 235° Southwest 376 433 34,000  Level New York Center
05:57PM 41.0131 -74.3706 240° Southwest 381 438 34,000  Level New York Center
05:58PM 40.9572 -74.4914 239° Southwest 381 438 34,000  Level New York Center
05:59PM 40.8969 -74.6117 236° Southwest 387 445 34,000  Level New York Center
06:00PM 40.8408 -74.7344 239° Southwest 398 458 34,000  Level New York Center
06:01PM 40.7825 -74.8572 238° Southwest 398 458 34,000  Level New York Center
06:02PM 40.7261 -74.9797 239° Southwest 398 458 34,000  Level New York Center
06:03PM 40.6697 -75.1022 239° Southwest 398 458 34,000  Level New York Center
06:04PM 40.6150 -75.2272 240° Southwest 393 452 34,000 -60 Level New York Center
06:05PM 40.5558 -75.3544 239° Southwest 398 458 33,900  Descending New York Center
06:06PM 40.5011 -75.4764 239° Southwest 398 458 34,000  Climbing New York Center
06:07PM 40.4439 -75.6008 239° Southwest 398 458 34,000  Level New York Center
06:08PM 40.3892 -75.7194 239° Southwest 398 458 34,000  Level New York Center
06:09PM 40.3339 -75.8436 240° Southwest 398 458 34,000  Level New York Center
06:10PM 40.2703 -75.9642 235° Southwest 398 458 34,000  Level New York Center
06:11PM 40.2125 -76.0875 239° Southwest 398 458 34,000  Level New York Center
06:12PM 40.1633 -76.2061 242° Southwest 385 443 34,000 240 Level New York Center
06:13PM 40.1061 -76.3183 236° Southwest 393 452 34,500 720 Climbing New York Center
06:14PM 40.0503 -76.4414 239° Southwest 393 452 35,500 720 Climbing New York Center
06:15PM 39.9942 -76.5642 239° Southwest 393 452 36,000 240 Climbing New York Center
06:16PM 39.9339 -76.6864 237° Southwest 393 452 36,000  Level New York Center
06:17PM 39.8464 -76.8725 239° Southwest 403 464 36,000  Level Washington Center
06:18PM 39.7867 -76.9983 238° Southwest 408 470 36,000  Level Washington Center
06:19PM 39.7269 -77.1267 239° Southwest 414 476 36,000  Level Washington Center
06:20PM 39.6711 -77.2442 238° Southwest 419 482 36,000  Level Washington Center
06:21PM 39.6108 -77.3747 239° Southwest 424 488 36,000  Level Washington Center
06:22PM 39.5506 -77.5050 239° Southwest 424 488 36,000  Level Washington Center
06:23PM 39.4881 -77.6325 238° Southwest 424 488 36,000  Level Washington Center
06:24PM 39.4233 -77.7650 238° Southwest 424 488 36,000  Level Washington Center
06:25PM 39.3667 -77.8975 241° Southwest 424 488 36,000  Level Washington Center
06:26PM 39.3139 -78.0353 244° Southwest 424 488 36,000  Level Washington Center
06:27PM 39.2567 -78.1728 242° Southwest 429 494 36,000  Level Washington Center
06:28PM 39.2036 -78.3103 244° Southwest 429 494 36,000  Level Washington Center
06:29PM 39.1464 -78.4500 242° Southwest 429 494 36,000  Level Washington Center
06:30PM 39.0908 -78.5842 242° Southwest 429 494 36,000  Level Washington Center
06:31PM 39.0539 -78.7297 252° West 434 499 36,000  Level Washington Center
06:32PM 39.0228 -78.8808 255° West 434 499 36,000  Level Washington Center
06:33PM 38.9914 -79.0289 255° West 434 499 36,000  Level Washington Center
06:34PM 38.9581 -79.1769 254° West 434 499 36,000  Level Washington Center
06:35PM 38.9264 -79.3272 255° West 434 499 36,000  Level Washington Center
06:36PM 38.8903 -79.4722 252° West 434 499 36,000  Level Washington Center
06:37PM 38.8581 -79.6306 255° West 440 506 36,000  Level Washington Center
06:38PM 38.8211 -79.7936 254° West 446 513 36,000  Level Washington Center
06:39PM 38.7972 -79.8797 250° West 442 509 36,000  Level Indianapolis Center
06:40PM 38.7639 -80.0308 254° West 442 509 36,000  Level Indianapolis Center
06:41PM 38.7281 -80.1831 253° West 444 511 36,000  Level Indianapolis Center
06:42PM 38.6939 -80.3336 254° West 442 509 36,000  Level Indianapolis Center
06:43PM 38.6583 -80.4844 253° West 441 507 36,000  Level Indianapolis Center
06:44PM 38.6247 -80.6375 254° West 444 511 36,000  Level Indianapolis Center
06:45PM 38.5878 -80.7900 253° West 449 517 36,000  Level Indianapolis Center
06:46PM 38.5439 -80.9739 253° West 450 518 36,000  Level Indianapolis Center
06:47PM 38.5067 -81.1269 253° West 448 516 36,000  Level Indianapolis Center
06:48PM 38.4700 -81.2811 253° West 449 517 36,000  Level Indianapolis Center
06:49PM 38.4328 -81.4350 253° West 450 518 36,000  Level Indianapolis Center
06:50PM 38.3964 -81.5881 253° West 446 513 36,000  Level Indianapolis Center
06:51PM 38.3581 -81.7389 252° West 443 510 36,000  Level Indianapolis Center
06:52PM 38.3175 -81.8872 251° West 442 509 36,000  Level Indianapolis Center
06:53PM 38.2756 -82.0361 250° West 445 512 36,000  Level Indianapolis Center
06:54PM 38.2339 -82.1853 250° West 446 513 36,000  Level Indianapolis Center
06:55PM 38.1839 -82.3603 250° West 440 506 36,000  Level Indianapolis Center
06:56PM 38.1439 -82.5008 250° West 440 506 36,000  Level Indianapolis Center
06:57PM 38.1031 -82.6428 250° West 431 496 36,000  Level Indianapolis Center
06:58PM 38.0619 -82.7836 250° West 426 490 36,000  Level Indianapolis Center
06:59PM 38.0139 -82.9483 250° West 427 491 36,000  Level Indianapolis Center
07:00PM 37.9633 -83.0867 245° Southwest 438 504 36,000  Level Indianapolis Center
07:01PM 37.8892 -83.2144 234° Southwest 453 521 36,000  Level Indianapolis Center
07:02PM 37.8114 -83.3419 232° Southwest 457 526 36,000  Level Indianapolis Center
07:04PM 37.7356 -83.4672 233° Southwest 453 521 36,000  Level Indianapolis Center
07:05PM 37.6467 -83.6172 233° Southwest 457 526 36,000  Level Indianapolis Center
07:06PM 37.5703 -83.7458 233° Southwest 458 527 36,000  Level Indianapolis Center
07:07PM 37.4933 -83.8739 233° Southwest 459 528 36,000  Level Indianapolis Center
07:08PM 37.4447 -84.0139 246° West 443 510 36,000  Level Indianapolis Center
07:09PM 37.4144 -84.1572 255° West 426 490 36,000  Level Indianapolis Center
07:10PM 37.3858 -84.3028 256° West 428 493 36,000  Level Indianapolis Center
07:11PM 37.3511 -84.4725 256° West 430 495 36,000  Level Indianapolis Center
07:12PM 37.3206 -84.6181 255° West 431 496 36,000  Level Indianapolis Center
07:13PM 37.2900 -84.7644 255° West 433 498 36,000  Level Indianapolis Center
07:14PM 37.2594 -84.9103 255° West 432 497 36,000  Level Indianapolis Center
07:15PM 37.2283 -85.0561 255° West 432 497 36,000  Level Indianapolis Center
07:16PM 37.1975 -85.2022 255° West 432 497 36,000  Level Indianapolis Center
07:17PM 37.1614 -85.3711 255° West 430 495 36,000  Level Indianapolis Center
07:18PM 37.1303 -85.5158 255° West 433 498 36,000  Level Indianapolis Center
07:19PM 37.1014 -85.6533 255° West 437 503 36,000  Level Indianapolis Center
07:20PM 37.0700 -85.7989 255° West 431 496 36,000  Level Indianapolis Center
07:21PM 37.0325 -85.9692 255° West 433 498 36,000  Level Indianapolis Center
07:22PM 36.9994 -86.1186 255° West 432 497 36,000  Level Indianapolis Center
07:23PM 36.9686 -86.2608 255° West 431 496 36,000  Level Indianapolis Center
07:24PM 36.9375 -86.4039 255° West 441 507 36,000  Level Memphis Center
07:25PM 36.8936 -86.5256 246° West 446 513 36,000  Level Memphis Center
07:26PM 36.8350 -86.6606 242° Southwest 441 507 36,000  Level Memphis Center
07:27PM 36.7744 -86.7953 241° Southwest 447 514 36,000  Level Memphis Center
07:28PM 36.7156 -86.9275 241° Southwest 447 514 36,000  Level Memphis Center
07:29PM 36.6586 -87.0592 242° Southwest 447 514 36,000 -300 Level Memphis Center
07:30PM 36.5997 -87.1933 241° Southwest 447 514 35,500 -540 Descending Memphis Center
07:31PM 36.5383 -87.3247 240° Southwest 447 514 35,000 -300 Descending Memphis Center
07:32PM 36.4811 -87.4533 241° Southwest 441 507 35,000  Level Memphis Center
07:33PM 36.4214 -87.5819 240° Southwest 441 507 35,000 -120 Level Memphis Center
07:34PM 36.3658 -87.7103 242° Southwest 434 499 34,800 -900 Descending Memphis Center
07:35PM 36.3061 -87.8383 240° Southwest 434 499 33,200 -1,560 Descending Memphis Center
07:36PM 36.2461 -87.9689 240° Southwest 429 494 31,700 -1,140 Descending Memphis Center
07:37PM 36.1800 -88.1097 240° Southwest 435 501 31,000 -1,380 Descending Memphis Center
07:38PM 36.1256 -88.2267 240° Southwest 435 501 29,000 -2,160 Descending Memphis Center
07:39PM 36.0633 -88.3594 240° Southwest 446 513 26,700 -2,340 Descending Memphis Center
07:40PM 36.0006 -88.4917 240° Southwest 451 519 24,400 -2,220 Descending Memphis Center
07:41PM 35.9442 -88.6136 240° Southwest 439 505 22,300 -2,100 Descending Memphis Center
07:42PM 35.8853 -88.7378 240° Southwest 433 498 20,200 -1,980 Descending Memphis Center
07:43PM 35.8264 -88.8592 239° Southwest 428 493 18,400 -1,680 Descending Memphis Center
07:44PM 35.7714 -88.9806 241° Southwest 422 486 16,900 -1,680 Descending Memphis Center
07:45PM 35.7100 -89.0914 236° Southwest 416 479 15,100 -1,800 Descending Memphis Center
07:46PM 35.6381 -89.1897 228° Southwest 397 457 13,400 -1,620 Descending Memphis Center
07:47PM 35.5700 -89.2800 227° Southwest 370 426 11,900 -1,560 Descending Memphis Center
07:48PM 35.4958 -89.3753 226° Southwest 364 419 10,300 -960 Descending Memphis Center
07:49PM 35.4275 -89.4628 226° Southwest 353 406 10,000 -300 Descending Memphis Center
07:50PM 35.3675 -89.5397 226° Southwest 341 392 9,700 -540 Descending Memphis Center
07:51PM 35.3097 -89.6142 226° Southwest 316 364 9,000 -360 Descending Memphis Center
07:52PM 35.2536 -89.6858 226° Southwest 303 349 9,000  Level Memphis Center
07:53PM 35.1978 -89.7550 225° Southwest 298 343 9,000 -60 Level Memphis Center
07:54PM 35.1500 -89.8186 227° Southwest 271 312 8,900 -600 Descending Memphis Center
07:55PM 35.0939 -89.8672 215° Southwest 256 295 7,900 -1,200 Descending Memphis Center
07:56PM 35.0253 -89.8678 180° South 246 283 6,600 -1,380 Descending Memphis Center
07:57PM 34.9625 -89.8656 178° South 240 276 5,200 -1,560 Descending Memphis Center
07:58PM 34.9061 -89.8658 180° South 217 250 3,500 -1,200 Descending Memphis Center
07:59PM 34.8814 -89.9217 242° Southwest 180 207 2,800 -900 Descending Memphis Center
07:59PM 34.8833 -89.9333 281° West 213 245 2,300 -1,440 Descending KMEM